createdAt,value
2022-12-19T00:03:14.628Z,71.83
2022-12-19T00:06:36.648Z,74.80
2022-12-19T00:09:58.546Z,78.87
2022-12-19T00:13:07.893Z,63.97
2022-12-19T00:16:21.649Z,68.10
2022-12-19T00:19:36.588Z,68.40
2022-12-19T00:22:38.454Z,68.73
2022-12-19T00:25:53.586Z,69.37
2022-12-19T00:29:08.708Z,74.10
2022-12-19T00:32:19.091Z,60.53
2022-12-19T00:35:27.601Z,63.13
2022-12-19T00:38:36.453Z,59.87
2022-12-19T00:41:46.578Z,60.00
2022-12-19T00:45:01.651Z,59.60
2022-12-19T00:48:10.198Z,67.35
2022-12-19T00:51:24.770Z,57.10
2022-12-19T00:54:33.203Z,62.10
2022-12-19T00:57:41.542Z,61.35
2022-12-19T01:00:56.611Z,63.30
2022-12-19T01:04:27.115Z,57.70
2022-12-19T01:07:34.546Z,64.00
2022-12-19T01:10:47.850Z,60.00
2022-12-19T01:13:56.575Z,61.78
2022-12-19T01:17:11.649Z,58.58
2022-12-19T01:20:16.675Z,60.15
2022-12-19T01:23:32.563Z,68.43
2022-12-19T01:26:41.284Z,66.67
2022-12-19T01:29:55.533Z,59.95
2022-12-19T01:33:04.570Z,65.53
2022-12-19T01:36:13.233Z,58.85
2022-12-19T01:39:22.566Z,56.17
2022-12-19T01:42:36.829Z,61.67
2022-12-19T01:45:46.241Z,66.60
2022-12-19T01:49:02.695Z,58.00
2022-12-19T01:52:13.481Z,60.50
2022-12-19T01:55:40.602Z,61.60
2022-12-19T01:58:44.477Z,66.00
2022-12-19T02:02:06.714Z,58.47
2022-12-19T02:05:15.566Z,59.65
2022-12-19T02:08:32.663Z,59.13
2022-12-19T02:11:42.582Z,62.60
2022-12-19T02:15:02.296Z,57.43
2022-12-19T02:18:26.547Z,61.67
2022-12-19T02:21:54.816Z,57.80
2022-12-19T02:25:29.620Z,69.37
2022-12-19T02:29:17.632Z,60.80
2022-12-19T02:32:34.718Z,68.13
2022-12-19T02:35:59.584Z,68.87
2022-12-19T02:39:16.508Z,68.47
2022-12-19T02:42:34.589Z,61.37
2022-12-19T02:45:44.985Z,66.40
2022-12-19T02:48:54.652Z,53.27
2022-12-19T02:52:39.665Z,62.90
2022-12-19T02:56:10.809Z,55.35
2022-12-19T02:59:55.635Z,69.68
2022-12-19T03:03:16.197Z,64.93
2022-12-19T03:06:37.652Z,61.70
2022-12-19T03:10:03.996Z,56.92
2022-12-19T03:13:20.648Z,52.83
2022-12-19T03:16:35.688Z,58.92
2022-12-19T03:19:40.161Z,66.43
2022-12-19T03:22:54.694Z,57.63
2022-12-19T03:26:02.488Z,57.88
2022-12-19T03:29:22.663Z,61.28
2022-12-19T03:32:26.473Z,63.78
2022-12-19T03:35:43.643Z,64.70
2022-12-19T03:38:47.571Z,61.33
2022-12-19T03:42:05.597Z,53.92
2022-12-19T03:45:08.705Z,61.78
2022-12-19T03:48:32.676Z,65.78
2022-12-19T03:51:59.236Z,60.83
2022-12-19T03:55:21.329Z,65.43
2022-12-19T03:58:40.646Z,69.35
2022-12-19T04:01:50.723Z,64.82
2022-12-19T04:05:03.249Z,65.47
2022-12-19T04:08:18.652Z,64.57
2022-12-19T04:11:38.637Z,67.50
2022-12-19T04:14:48.603Z,72.43
2022-12-19T04:18:01.740Z,64.28
2022-12-19T04:21:26.681Z,74.15
2022-12-19T04:24:34.867Z,61.63
2022-12-19T04:27:54.733Z,81.83
2022-12-19T04:30:57.892Z,69.97
2022-12-19T04:34:12.633Z,70.03
2022-12-19T04:37:14.554Z,60.33
2022-12-19T04:40:29.648Z,65.77
2022-12-19T04:43:37.668Z,66.83
2022-12-19T04:46:52.670Z,62.35
2022-12-19T04:49:54.516Z,65.62
2022-12-19T04:53:09.714Z,70.65
2022-12-19T04:56:11.792Z,75.20
2022-12-19T04:59:26.695Z,71.53
2022-12-19T05:02:35.886Z,64.95
2022-12-19T05:05:50.690Z,67.18
2022-12-19T05:09:05.679Z,65.05
2022-12-19T05:12:14.426Z,73.27
2022-12-19T05:15:22.717Z,62.80
2022-12-19T05:18:31.575Z,80.35
2022-12-19T05:21:39.704Z,76.10
2022-12-19T05:24:48.334Z,82.97
2022-12-19T05:27:56.657Z,77.33
2022-12-19T05:31:08.839Z,80.00
2022-12-19T05:34:17.807Z,73.60
2022-12-19T05:37:32.686Z,75.43
2022-12-19T05:40:34.571Z,69.43
2022-12-19T05:43:51.765Z,75.03
2022-12-19T05:46:53.790Z,69.60
2022-12-19T05:50:08.681Z,66.85
2022-12-19T05:53:10.496Z,69.93
2022-12-19T05:56:28.734Z,75.70
2022-12-19T05:59:30.735Z,73.17
2022-12-19T06:02:45.912Z,64.63
2022-12-19T06:05:48.016Z,65.45
2022-12-19T06:09:05.738Z,82.00
2022-12-19T06:12:21.012Z,75.40
2022-12-19T06:15:35.721Z,72.07
2022-12-19T06:18:46.141Z,70.77
2022-12-19T06:22:00.740Z,68.45
2022-12-19T06:25:16.664Z,65.55
2022-12-19T06:28:18.512Z,63.97
2022-12-19T06:31:33.705Z,69.53
2022-12-19T06:38:10.768Z,60.05
2022-12-19T06:41:19.692Z,68.50
2022-12-19T06:44:34.728Z,62.22
2022-12-19T06:47:43.716Z,71.80
2022-12-19T06:50:52.353Z,58.30
2022-12-19T06:54:00.694Z,64.12
2022-12-19T06:57:09.403Z,54.70
2022-12-19T07:00:19.679Z,59.88
2022-12-19T07:03:44.699Z,62.70
2022-12-19T07:06:52.820Z,65.03
2022-12-19T07:10:15.755Z,53.70
2022-12-19T07:13:17.720Z,69.22
2022-12-19T07:16:34.016Z,56.22
2022-12-19T07:19:42.700Z,54.30
2022-12-19T07:22:57.891Z,52.73
2022-12-19T07:25:59.796Z,67.05
2022-12-19T07:29:16.743Z,59.30
2022-12-19T07:32:18.786Z,50.45
2022-12-19T07:35:33.827Z,46.57
2022-12-19T07:38:37.395Z,47.83
2022-12-19T07:41:51.701Z,58.58
2022-12-19T07:44:53.650Z,54.05
2022-12-19T07:48:13.117Z,61.58
2022-12-19T07:51:21.782Z,59.40
2022-12-19T07:54:30.640Z,58.43
2022-12-19T07:57:45.753Z,59.58
2022-12-19T08:01:06.219Z,64.18
2022-12-19T08:04:23.745Z,58.00
2022-12-19T08:07:45.732Z,55.53
2022-12-19T08:11:00.797Z,67.53
2022-12-19T08:14:09.805Z,50.10
2022-12-19T08:17:20.753Z,49.42
2022-12-19T08:20:36.771Z,47.58
2022-12-19T08:23:52.325Z,48.77
2022-12-19T08:27:00.768Z,44.90
2022-12-19T08:30:10.035Z,41.13
2022-12-19T08:33:18.752Z,40.10
2022-12-19T08:36:33.766Z,41.10
2022-12-19T08:39:42.565Z,30.93
2022-12-19T08:42:57.832Z,29.70
2022-12-19T08:46:06.828Z,34.40
2022-12-19T08:49:15.795Z,34.83
2022-12-19T08:52:23.812Z,41.15
2022-12-19T08:55:38.761Z,30.73
2022-12-19T08:58:48.809Z,56.03
2022-12-19T09:01:57.601Z,37.00
2022-12-19T09:06:05.047Z,31.15
2022-12-19T09:08:47.761Z,34.40
2022-12-19T09:11:56.423Z,33.03
2022-12-19T09:15:10.911Z,39.17
2022-12-19T09:18:12.740Z,43.80
2022-12-19T09:21:30.050Z,34.88
2022-12-19T09:24:31.979Z,48.30
2022-12-19T09:28:25.211Z,37.17
2022-12-19T09:31:14.983Z,24.90
2022-12-19T09:34:37.751Z,32.85
2022-12-19T09:37:46.804Z,26.30
2022-12-19T09:41:26.750Z,34.20
2022-12-19T09:45:15.434Z,35.73
2022-12-19T09:48:24.560Z,25.63
2022-12-19T09:51:45.136Z,32.40
2022-12-19T09:55:00.835Z,34.78
2022-12-19T09:58:34.756Z,41.30
2022-12-19T10:02:02.915Z,42.37
2022-12-19T10:05:48.479Z,37.13
2022-12-19T10:10:52.871Z,30.90
2022-12-19T10:12:54.843Z,57.17
2022-12-19T10:16:19.912Z,37.50
2022-12-19T10:19:41.921Z,35.83
2022-12-19T10:23:06.014Z,35.23
2022-12-19T10:26:30.304Z,36.05
2022-12-19T10:29:57.398Z,34.95
2022-12-19T10:33:29.782Z,36.70
2022-12-19T10:37:23.763Z,35.53
2022-12-19T10:40:27.545Z,33.83
2022-12-19T10:43:51.808Z,37.30
2022-12-19T10:47:00.805Z,40.35
2022-12-19T10:50:18.029Z,39.58
2022-12-19T10:53:29.965Z,66.90
2022-12-19T10:56:38.876Z,50.37
2022-12-19T11:00:12.097Z,38.80
2022-12-19T11:03:29.607Z,31.62
2022-12-19T11:07:11.488Z,37.63
2022-12-19T11:14:07.113Z,37.73
2022-12-19T11:19:51.724Z,39.27
2022-12-19T11:26:02.251Z,32.80
2022-12-19T11:29:54.531Z,31.50
2022-12-19T11:30:09.735Z,34.22
2022-12-19T11:30:41.364Z,37.07
2022-12-19T11:32:42.955Z,29.77
2022-12-19T11:35:57.845Z,36.70
2022-12-19T11:39:16.752Z,41.25
2022-12-19T11:42:31.863Z,30.42
2022-12-19T11:45:51.441Z,29.10
2022-12-19T11:49:16.864Z,32.20
2022-12-19T11:53:04.443Z,34.63
2022-12-19T11:56:16.554Z,43.03
2022-12-19T11:59:38.915Z,37.50
2022-12-19T12:03:07.747Z,33.57
2022-12-19T12:06:31.106Z,38.03
2022-12-19T12:14:34.301Z,35.90
2022-12-19T12:22:34.754Z,30.62
2022-12-19T12:30:59.231Z,36.13
2022-12-19T12:31:13.554Z,44.47
2022-12-19T12:31:46.928Z,37.65
2022-12-19T12:31:58.824Z,31.77
2022-12-19T12:35:51.512Z,31.98
2022-12-19T12:38:14.618Z,39.80
2022-12-19T12:41:08.447Z,36.90
2022-12-19T12:44:32.806Z,71.77
2022-12-19T12:47:47.832Z,36.03
2022-12-19T12:50:54.975Z,36.90
2022-12-19T12:54:18.894Z,34.63
2022-12-19T12:57:41.140Z,41.00
2022-12-19T13:01:14.966Z,29.70
2022-12-19T13:04:32.014Z,30.20
2022-12-19T13:07:53.666Z,25.92
2022-12-19T13:11:46.877Z,35.47
2022-12-19T13:14:57.900Z,36.43
2022-12-19T13:18:28.650Z,34.73
2022-12-19T13:22:06.839Z,40.05
2022-12-19T13:25:53.864Z,31.48
2022-12-19T13:29:32.191Z,31.95
2022-12-19T13:33:15.965Z,29.97
2022-12-19T13:39:51.094Z,32.17
2022-12-19T13:40:33.270Z,32.70
2022-12-19T13:43:48.913Z,32.25
2022-12-19T13:46:57.513Z,32.08
2022-12-19T13:50:13.916Z,29.10
2022-12-19T13:53:24.868Z,30.33
2022-12-19T13:56:36.947Z,32.25
2022-12-19T14:00:01.388Z,38.38
2022-12-19T14:03:10.102Z,51.60
2022-12-19T14:06:29.919Z,29.33
2022-12-19T14:11:27.155Z,36.33
2022-12-19T14:13:51.183Z,31.95
2022-12-19T14:16:54.065Z,34.60
2022-12-19T14:22:06.091Z,35.08
2022-12-19T14:23:47.872Z,28.07
2022-12-19T14:28:22.085Z,31.97
2022-12-19T14:30:35.891Z,36.28
2022-12-19T14:37:54.662Z,30.85
2022-12-19T14:41:08.180Z,31.60
2022-12-19T14:52:08.592Z,31.57
2022-12-19T14:52:35.251Z,32.97
2022-12-19T14:54:30.695Z,32.17
2022-12-19T14:56:07.857Z,32.75
2022-12-19T14:58:52.688Z,31.67
2022-12-19T15:02:33.350Z,28.10
2022-12-19T15:05:36.083Z,33.42
2022-12-19T15:11:00.470Z,39.47
2022-12-19T15:14:20.876Z,43.75
2022-12-19T15:16:25.689Z,29.40
2022-12-19T15:19:41.036Z,29.50
2022-12-19T15:22:49.924Z,39.95
2022-12-19T15:26:06.503Z,27.75
2022-12-19T15:29:22.069Z,31.30
2022-12-19T15:32:31.112Z,28.83
2022-12-19T15:35:40.009Z,34.07
2022-12-19T15:38:55.082Z,36.78
2022-12-19T15:42:07.101Z,31.95
2022-12-19T15:45:16.412Z,37.10
2022-12-19T15:48:31.967Z,29.20
2022-12-19T15:51:46.929Z,31.37
2022-12-19T15:54:54.947Z,30.90
2022-12-19T15:58:12.947Z,28.92
2022-12-19T16:01:15.027Z,32.42
2022-12-19T16:04:32.232Z,35.57
2022-12-19T16:07:40.985Z,34.67
2022-12-19T16:11:01.892Z,32.05
2022-12-19T16:14:10.991Z,31.80
2022-12-19T16:17:22.502Z,35.47
2022-12-19T16:20:39.952Z,31.53
2022-12-19T16:23:48.135Z,31.33
2022-12-19T16:27:05.063Z,38.63
2022-12-19T16:30:23.967Z,29.33
2022-12-19T16:33:32.896Z,34.78
2022-12-19T16:36:40.914Z,33.07
2022-12-19T16:39:56.077Z,28.53
2022-12-19T16:43:12.647Z,35.55
2022-12-19T16:46:30.042Z,38.75
2022-12-19T16:49:32.208Z,37.42
2022-12-19T16:52:46.967Z,38.93
2022-12-19T16:55:57.042Z,38.47
2022-12-19T16:59:09.028Z,38.75
2022-12-19T17:02:46.222Z,28.42
2022-12-19T17:05:54.995Z,35.33
2022-12-19T17:09:10.027Z,31.50
2022-12-19T17:12:26.141Z,34.87
2022-12-19T17:15:42.987Z,35.53
2022-12-19T17:18:46.102Z,37.35
2022-12-19T17:22:01.102Z,32.70
2022-12-19T17:25:24.089Z,42.33
2022-12-19T17:28:34.050Z,42.90
2022-12-19T17:31:50.016Z,40.38
2022-12-19T17:34:58.969Z,46.78
2022-12-19T17:38:20.039Z,34.78
2022-12-19T17:41:28.558Z,44.60
2022-12-19T17:44:43.076Z,43.13
2022-12-19T17:47:58.424Z,49.85
2022-12-19T17:51:13.069Z,52.17
2022-12-19T17:54:21.009Z,42.05
2022-12-19T17:57:29.522Z,42.20
2022-12-19T18:00:45.094Z,41.33
2022-12-19T18:03:49.966Z,42.00
2022-12-19T18:07:04.961Z,43.55
2022-12-19T18:10:22.021Z,45.63
2022-12-19T18:13:37.315Z,51.13
2022-12-19T18:16:46.238Z,45.07
2022-12-19T18:19:56.233Z,38.70
2022-12-19T18:23:05.981Z,37.22
2022-12-19T18:26:14.584Z,46.05
2022-12-19T18:29:22.972Z,42.33
2022-12-19T18:32:33.834Z,38.60
2022-12-19T18:35:46.996Z,41.30
2022-12-19T18:38:56.653Z,39.20
2022-12-19T18:42:26.017Z,42.72
2022-12-19T18:45:36.107Z,43.03
2022-12-19T18:48:52.200Z,40.43
2022-12-19T18:52:01.068Z,38.65
2022-12-19T18:55:17.741Z,39.10
2022-12-19T18:58:27.309Z,43.97
2022-12-19T19:01:43.626Z,40.47
2022-12-19T19:04:58.008Z,41.73
2022-12-19T19:08:12.890Z,45.40
2022-12-19T19:11:29.469Z,44.42
2022-12-19T19:14:44.311Z,45.38
2022-12-19T19:17:55.105Z,41.50
2022-12-19T19:21:12.126Z,43.00
2022-12-19T19:24:25.131Z,47.35
2022-12-19T19:27:33.626Z,42.10
2022-12-19T19:30:45.083Z,39.50
2022-12-19T19:34:07.136Z,42.40
2022-12-19T19:37:12.761Z,40.23
2022-12-19T19:40:30.043Z,41.28
2022-12-19T19:43:41.580Z,42.10
2022-12-19T19:46:59.121Z,47.72
2022-12-19T19:50:08.023Z,48.43
2022-12-19T19:53:24.057Z,44.23
2022-12-19T19:56:32.096Z,42.42
2022-12-19T19:59:47.173Z,42.90
2022-12-19T20:02:57.572Z,45.15
2022-12-19T20:06:13.080Z,52.23
2022-12-19T20:09:14.954Z,44.73
2022-12-19T20:12:31.042Z,45.28
2022-12-19T20:15:44.405Z,42.33
2022-12-19T20:18:58.086Z,38.42
2022-12-19T20:22:11.030Z,47.57
2022-12-19T20:25:19.167Z,47.07
2022-12-19T20:28:35.329Z,45.30
2022-12-19T20:31:39.179Z,43.35
2022-12-19T20:34:54.326Z,40.80
2022-12-19T20:38:03.515Z,44.80
2022-12-19T20:41:13.031Z,46.10
2022-12-19T20:44:28.074Z,45.30
2022-12-19T20:47:43.079Z,47.53
2022-12-19T20:50:51.048Z,50.33
2022-12-19T20:54:06.105Z,42.33
2022-12-19T20:57:08.038Z,48.50
2022-12-19T21:00:24.028Z,47.55
2022-12-19T21:03:28.391Z,46.90
2022-12-19T21:06:44.050Z,45.97
2022-12-19T21:09:52.669Z,40.87
2022-12-19T21:13:08.129Z,52.07
2022-12-19T21:16:26.156Z,46.80
2022-12-19T21:19:35.140Z,46.92
2022-12-19T21:22:43.664Z,44.58
2022-12-19T21:25:52.218Z,41.67
2022-12-19T21:29:07.205Z,49.23
2022-12-19T21:32:13.463Z,47.25
2022-12-19T21:35:32.243Z,47.03
2022-12-19T21:38:34.983Z,45.85
2022-12-19T21:41:50.058Z,49.27
2022-12-19T21:44:51.805Z,47.50
2022-12-19T21:48:08.627Z,44.70
2022-12-19T21:51:26.089Z,49.55
2022-12-19T21:54:34.730Z,44.05
2022-12-19T21:57:49.072Z,50.77
2022-12-19T22:01:08.320Z,52.17
2022-12-19T22:04:21.299Z,47.33
2022-12-19T22:07:29.873Z,41.25
2022-12-19T22:10:38.302Z,49.67
2022-12-19T22:14:00.148Z,49.37
2022-12-19T22:17:02.055Z,52.80
2022-12-19T22:20:17.085Z,46.20
2022-12-19T22:23:18.937Z,53.67
2022-12-19T22:26:36.151Z,49.90
2022-12-19T22:29:37.913Z,53.30
2022-12-19T22:32:53.174Z,48.77
2022-12-19T22:36:05.062Z,53.00
2022-12-19T22:39:17.284Z,55.78
2022-12-19T22:42:34.131Z,49.70
2022-12-19T22:45:49.191Z,47.00
2022-12-19T22:49:06.201Z,48.57
2022-12-19T22:52:08.119Z,47.35
2022-12-19T22:55:23.104Z,48.45
2022-12-19T22:58:24.985Z,50.70
2022-12-19T23:01:43.544Z,51.37
2022-12-19T23:04:45.667Z,44.60
2022-12-19T23:08:00.293Z,52.28
2022-12-19T23:11:25.372Z,51.92
2022-12-19T23:14:33.685Z,50.97
2022-12-19T23:17:42.220Z,55.03
2022-12-19T23:21:09.373Z,52.03
2022-12-19T23:24:19.135Z,49.17
2022-12-19T23:27:34.114Z,51.20
2022-12-19T23:30:37.297Z,45.92
2022-12-19T23:33:52.123Z,62.47
2022-12-19T23:37:10.645Z,50.77
2022-12-19T23:40:26.256Z,53.80
2022-12-19T23:43:29.178Z,42.28
2022-12-19T23:46:44.130Z,51.45
2022-12-19T23:49:53.130Z,47.53
2022-12-19T23:53:08.263Z,45.30
2022-12-19T23:56:22.153Z,53.67
2022-12-19T23:59:30.814Z,42.38
